Time;durP1;ratioP1;P1;durP2;ratioP2;P2;SDS_P1;SDS_P2;PMS_P1;PMS_P2;Temp;Humidity;BMP_temperature;BMP_pressure;BME280_temperature;BME280_humidity;BME280_pressure;Samples;Min_cycle;Max_cycle;Signal;HPM_P1;HPM_P2
2022/10/15 00:00:47;;;;;;;12.77;11.73;;;;;;;;;;4999630;28;20222;-76
2022/10/15 00:03:15;;;;;;;13.05;11.95;;;;;;;;;;4989944;28;20233;-76
2022/10/15 00:05:41;;;;;;;14.00;12.73;;;;;;;;;;4991355;28;20603;-76
2022/10/15 00:08:12;;;;;;;13.37;12.13;;;;;;;;;;4993021;28;20247;-76
2022/10/15 00:10:43;;;;;;;13.50;12.30;;;;;;;;;;4976684;28;20232;-77
2022/10/15 00:13:09;;;;;;;14.30;13.10;;;;;;;;;;4983927;28;20230;-77
2022/10/15 00:15:37;;;;;;;14.25;13.05;;;;;;;;;;4974531;28;20243;-76
2022/10/15 00:18:03;;;;;;;14.60;13.23;;;;;;;;;;5002259;28;20324;-76
2022/10/15 00:20:31;;;;;;;16.43;14.83;;;;;;;;;;4984557;28;20224;-76
2022/10/15 00:22:56;;;;;;;16.47;15.03;;;;;;;;;;4979044;28;20257;-76
2022/10/15 00:25:22;;;;;;;17.10;15.53;;;;;;;;;;4996105;28;25338;-76
2022/10/15 00:27:49;;;;;;;18.03;16.43;;;;;;;;;;4981819;28;20214;-75
2022/10/15 00:30:18;;;;;;;17.80;16.10;;;;;;;;;;4993141;28;20220;-76
2022/10/15 00:32:44;;;;;;;18.47;16.87;;;;;;;;;;4958319;28;20244;-76
2022/10/15 00:35:15;;;;;;;18.50;16.87;;;;;;;;;;4979206;28;20676;-75
2022/10/15 00:37:43;;;;;;;20.23;18.48;;;;;;;;;;4982155;28;20236;-76
2022/10/15 00:40:10;;;;;;;20.77;18.70;;;;;;;;;;4984430;28;20214;-76
2022/10/15 00:42:38;;;;;;;21.60;19.67;;;;;;;;;;4957449;28;20249;-75
2022/10/15 00:45:10;;;;;;;20.60;18.90;;;;;;;;;;4974329;28;20232;-76
2022/10/15 00:47:42;;;;;;;20.43;18.63;;;;;;;;;;4971903;28;20282;-75
2022/10/15 00:50:24;;;;;;;20.10;18.40;;;;;;;;;;4993592;28;21105;-76
2022/10/15 00:52:55;;;;;;;21.33;19.33;;;;;;;;;;4957719;28;20225;-75
2022/10/15 00:55:28;;;;;;;20.60;18.70;;;;;;;;;;5005964;28;20269;-75
2022/10/15 00:57:58;;;;;;;21.23;19.33;;;;;;;;;;4995013;28;20295;-76
2022/10/15 01:00:24;;;;;;;23.37;21.27;;;;;;;;;;4994560;28;20914;-75
2022/10/15 01:02:50;;;;;;;21.80;19.90;;;;;;;;;;4987407;28;20218;-75
2022/10/15 01:05:16;;;;;;;20.87;18.97;;;;;;;;;;4996545;28;20769;-75
2022/10/15 01:07:43;;;;;;;21.57;19.50;;;;;;;;;;4977059;28;20236;-75
2022/10/15 01:10:09;;;;;;;21.90;19.73;;;;;;;;;;4980854;28;20234;-76
2022/10/15 01:13:00;;;;;;;21.07;19.27;;;;;;;;;;4990139;28;20228;-76
2022/10/15 01:15:28;;;;;;;21.00;19.23;;;;;;;;;;5008466;28;20606;-76
2022/10/15 01:18:01;;;;;;;20.20;18.40;;;;;;;;;;4999073;28;20239;-77
2022/10/15 01:20:42;;;;;;;21.10;19.20;;;;;;;;;;5008445;28;20803;-78
2022/10/15 01:23:16;;;;;;;20.40;18.50;;;;;;;;;;4999343;28;20225;-76
2022/10/15 01:26:19;;;;;;;19.87;18.03;;;;;;;;;;4964627;28;20249;-76
2022/10/15 01:28:57;;;;;;;20.53;18.63;;;;;;;;;;5010056;28;20216;-76
2022/10/15 01:31:30;;;;;;;21.17;18.97;;;;;;;;;;4981277;28;20225;-76
2022/10/15 01:34:19;;;;;;;21.13;19.30;;;;;;;;;;4981149;28;20229;-77
2022/10/15 01:36:58;;;;;;;21.73;19.43;;;;;;;;;;4980586;28;20233;-76
2022/10/15 01:39:28;;;;;;;21.47;19.37;;;;;;;;;;4979229;28;20300;-76
2022/10/15 01:41:56;;;;;;;22.03;20.07;;;;;;;;;;4990439;28;20228;-77
2022/10/15 01:44:35;;;;;;;22.93;20.77;;;;;;;;;;5008056;28;20220;-76
2022/10/15 01:47:23;;;;;;;23.40;21.23;;;;;;;;;;5006310;28;20244;-76
2022/10/15 01:49:50;;;;;;;24.00;21.77;;;;;;;;;;4983343;28;20275;-76
2022/10/15 01:52:19;;;;;;;23.90;21.33;;;;;;;;;;4974505;28;20221;-76
2022/10/15 01:54:48;;;;;;;23.10;20.83;;;;;;;;;;4988350;28;20709;-76
2022/10/15 01:57:13;;;;;;;23.70;21.40;;;;;;;;;;4989212;28;20834;-76
2022/10/15 01:59:44;;;;;;;25.03;22.63;;;;;;;;;;4979080;28;20309;-76
2022/10/15 02:02:13;;;;;;;25.37;22.33;;;;;;;;;;4987544;28;20221;-76
2022/10/15 02:04:39;;;;;;;24.50;22.10;;;;;;;;;;4991974;28;20291;-76
2022/10/15 02:07:12;;;;;;;24.67;21.87;;;;;;;;;;4980430;28;20757;-76
2022/10/15 02:09:47;;;;;;;25.17;22.67;;;;;;;;;;4955975;28;20253;-77
2022/10/15 02:12:48;;;;;;;25.80;23.30;;;;;;;;;;4977899;28;20396;-76
2022/10/15 02:15:29;;;;;;;25.47;22.97;;;;;;;;;;4997096;28;20715;-76
2022/10/15 02:18:01;;;;;;;23.47;21.27;;;;;;;;;;4993748;28;20230;-76
2022/10/15 02:20:35;;;;;;;25.93;23.47;;;;;;;;;;4994099;28;20249;-76
2022/10/15 02:23:12;;;;;;;26.97;24.20;;;;;;;;;;5005585;28;20367;-76
2022/10/15 02:25:42;;;;;;;25.80;22.90;;;;;;;;;;4979996;28;20303;-76
2022/10/15 02:28:10;;;;;;;25.67;23.07;;;;;;;;;;4981701;28;20739;-77
2022/10/15 02:30:36;;;;;;;25.30;22.80;;;;;;;;;;4961204;28;20225;-75
2022/10/15 02:33:01;;;;;;;26.27;23.57;;;;;;;;;;4973173;28;20280;-76
2022/10/15 02:35:34;;;;;;;26.73;23.07;;;;;;;;;;4963667;28;20914;-76
2022/10/15 02:38:06;;;;;;;25.33;22.83;;;;;;;;;;4964695;28;20715;-76
2022/10/15 02:40:34;;;;;;;26.83;24.00;;;;;;;;;;4982150;28;20778;-76
2022/10/15 02:43:04;;;;;;;27.70;24.23;;;;;;;;;;4965810;28;20221;-76
2022/10/15 02:45:30;;;;;;;28.10;24.83;;;;;;;;;;4974735;28;20221;-76
2022/10/15 02:47:57;;;;;;;28.57;25.50;;;;;;;;;;5005975;28;20230;-75
2022/10/15 02:50:23;;;;;;;28.80;25.60;;;;;;;;;;4989988;28;20230;-76
2022/10/15 02:52:48;;;;;;;30.10;25.80;;;;;;;;;;4991599;28;20221;-76
2022/10/15 02:55:14;;;;;;;31.37;27.83;;;;;;;;;;4959848;28;20229;-75
2022/10/15 02:57:40;;;;;;;31.20;27.67;;;;;;;;;;4989444;28;21178;-76
2022/10/15 03:00:10;;;;;;;34.10;27.33;;;;;;;;;;4998832;28;20213;-76
2022/10/15 03:02:39;;;;;;;31.30;27.60;;;;;;;;;;4993705;28;20726;-76
2022/10/15 03:05:08;;;;;;;34.47;27.90;;;;;;;;;;4983088;28;20201;-76
2022/10/15 03:07:33;;;;;;;31.50;28.17;;;;;;;;;;4981045;28;20809;-76
2022/10/15 03:09:59;;;;;;;30.90;27.60;;;;;;;;;;4985796;28;20270;-76
2022/10/15 03:12:30;;;;;;;31.93;28.23;;;;;;;;;;4995827;28;20220;-74
2022/10/15 03:14:56;;;;;;;35.67;28.93;;;;;;;;;;4999780;28;20723;-76
2022/10/15 03:17:27;;;;;;;33.67;29.27;;;;;;;;;;4991108;28;20225;-74
2022/10/15 03:19:55;;;;;;;34.03;28.67;;;;;;;;;;4974661;28;20218;-75
2022/10/15 03:22:20;;;;;;;32.70;28.30;;;;;;;;;;4980518;28;20230;-75
2022/10/15 03:24:50;;;;;;;33.47;28.20;;;;;;;;;;4977298;28;20296;-75
2022/10/15 03:27:24;;;;;;;31.07;27.23;;;;;;;;;;4972311;28;20280;-76
2022/10/15 03:29:52;;;;;;;36.17;29.43;;;;;;;;;;4963367;28;20228;-75
2022/10/15 03:32:23;;;;;;;36.90;29.23;;;;;;;;;;4999104;28;20221;-74
2022/10/15 03:34:54;;;;;;;33.23;27.93;;;;;;;;;;4982198;28;20256;-75
2022/10/15 03:37:20;;;;;;;35.77;28.30;;;;;;;;;;4978279;28;20346;-76
2022/10/15 03:39:48;;;;;;;35.23;28.23;;;;;;;;;;4994642;28;20688;-76
2022/10/15 03:42:16;;;;;;;41.97;29.07;;;;;;;;;;4995848;28;20220;-75
2022/10/15 03:44:50;;;;;;;35.07;28.53;;;;;;;;;;4980321;28;20767;-76
2022/10/15 03:47:22;;;;;;;41.47;30.33;;;;;;;;;;4985046;28;20291;-75
2022/10/15 03:49:49;;;;;;;37.80;30.60;;;;;;;;;;5000420;28;20249;-76
2022/10/15 03:52:17;;;;;;;40.73;30.97;;;;;;;;;;4998217;28;20714;-76
2022/10/15 03:54:45;;;;;;;44.23;32.83;;;;;;;;;;4977424;28;20303;-76
2022/10/15 03:57:17;;;;;;;48.93;34.90;;;;;;;;;;4997545;28;20228;-75
2022/10/15 03:59:54;;;;;;;49.10;35.87;;;;;;;;;;4965515;28;20280;-74
2022/10/15 04:02:24;;;;;;;55.10;36.87;;;;;;;;;;4981552;28;20267;-76
2022/10/15 04:04:57;;;;;;;49.70;36.77;;;;;;;;;;4999243;28;20256;-76
2022/10/15 04:07:30;;;;;;;53.50;36.30;;;;;;;;;;4972691;28;20297;-75
2022/10/15 04:09:58;;;;;;;51.10;35.57;;;;;;;;;;4981650;28;20256;-75
2022/10/15 04:12:34;;;;;;;57.83;38.77;;;;;;;;;;4992971;28;20224;-75
2022/10/15 04:15:00;;;;;;;54.73;38.70;;;;;;;;;;4997673;28;20237;-74
2022/10/15 04:17:26;;;;;;;59.83;38.97;;;;;;;;;;4996579;28;20225;-75
2022/10/15 04:19:52;;;;;;;63.57;40.40;;;;;;;;;;4988512;28;20231;-74
2022/10/15 04:22:19;;;;;;;63.90;39.30;;;;;;;;;;5000979;28;20335;-76
2022/10/15 04:24:51;;;;;;;60.83;39.13;;;;;;;;;;4982188;28;20221;-76
2022/10/15 04:27:25;;;;;;;57.23;37.20;;;;;;;;;;4994678;28;20692;-76
2022/10/15 04:29:50;;;;;;;55.40;37.43;;;;;;;;;;4976988;28;20249;-77
2022/10/15 04:32:25;;;;;;;56.73;37.57;;;;;;;;;;4977717;28;20221;-75
2022/10/15 04:34:56;;;;;;;52.83;37.03;;;;;;;;;;4994874;28;20225;-76
2022/10/15 04:37:37;;;;;;;57.17;37.37;;;;;;;;;;4979736;28;20225;-75
2022/10/15 04:40:08;;;;;;;49.27;35.70;;;;;;;;;;4969544;28;20224;-75
2022/10/15 04:42:36;;;;;;;51.47;35.30;;;;;;;;;;4982849;28;20218;-76
2022/10/15 04:45:04;;;;;;;53.20;37.23;;;;;;;;;;4964224;28;20221;-76
2022/10/15 04:47:33;;;;;;;53.07;35.53;;;;;;;;;;4987926;28;20580;-75
2022/10/15 04:50:14;;;;;;;44.60;33.53;;;;;;;;;;4991276;28;20239;-75
2022/10/15 04:53:07;;;;;;;48.63;34.80;;;;;;;;;;4979171;28;20701;-75
2022/10/15 04:55:36;;;;;;;45.03;32.40;;;;;;;;;;4981825;28;20233;-75
2022/10/15 04:58:04;;;;;;;47.17;34.17;;;;;;;;;;4972607;28;20282;-75
2022/10/15 05:00:32;;;;;;;45.77;34.00;;;;;;;;;;4979154;28;20214;-75
2022/10/15 05:03:06;;;;;;;46.40;35.20;;;;;;;;;;4993868;28;20221;-76
2022/10/15 05:05:52;;;;;;;50.07;34.67;;;;;;;;;;4997000;28;20228;-76
2022/10/15 05:08:17;;;;;;;47.73;32.60;;;;;;;;;;4961507;28;20680;-75
2022/10/15 05:11:07;;;;;;;42.37;31.40;;;;;;;;;;4983605;28;20249;-75
2022/10/15 05:13:35;;;;;;;43.00;31.63;;;;;;;;;;4980340;28;20257;-76
2022/10/15 05:16:11;;;;;;;39.20;29.73;;;;;;;;;;4977660;28;20311;-77
2022/10/15 05:18:43;;;;;;;34.67;27.37;;;;;;;;;;4990440;28;20233;-75
2022/10/15 05:21:09;;;;;;;35.70;28.60;;;;;;;;;;4987248;28;20229;-74
2022/10/15 05:23:35;;;;;;;37.33;27.83;;;;;;;;;;4986464;28;20225;-75
2022/10/15 05:26:31;;;;;;;35.43;28.63;;;;;;;;;;4995730;28;20233;-75
2022/10/15 05:28:57;;;;;;;42.03;29.70;;;;;;;;;;4990277;28;20221;-75
2022/10/15 05:31:27;;;;;;;39.77;29.97;;;;;;;;;;4979493;28;20271;-75
2022/10/15 05:34:05;;;;;;;39.00;28.87;;;;;;;;;;4956219;28;20770;-75
2022/10/15 05:36:33;;;;;;;42.93;29.57;;;;;;;;;;4986720;28;20234;-76
2022/10/15 05:39:03;;;;;;;42.00;30.73;;;;;;;;;;4986296;28;20368;-76
2022/10/15 05:41:30;;;;;;;42.17;29.97;;;;;;;;;;4985681;28;20340;-75
2022/10/15 05:44:00;;;;;;;38.67;29.33;;;;;;;;;;4992139;28;20221;-75
2022/10/15 05:46:28;;;;;;;38.47;32.07;;;;;;;;;;4962248;28;20217;-76
2022/10/15 05:48:58;;;;;;;41.40;30.73;;;;;;;;;;4994742;28;20221;-76
2022/10/15 05:51:26;;;;;;;40.47;30.27;;;;;;;;;;4957573;28;20223;-76
2022/10/15 05:53:57;;;;;;;40.77;29.30;;;;;;;;;;4993121;28;20231;-76
2022/10/15 05:56:22;;;;;;;43.10;30.87;;;;;;;;;;4979762;28;20312;-75
2022/10/15 05:58:50;;;;;;;43.13;29.40;;;;;;;;;;4992256;28;20242;-76
2022/10/15 06:01:16;;;;;;;43.93;30.97;;;;;;;;;;5000568;28;20271;-75
2022/10/15 06:03:49;;;;;;;39.30;29.97;;;;;;;;;;4975709;28;20592;-75
2022/10/15 06:06:19;;;;;;;41.70;31.33;;;;;;;;;;4975666;28;20317;-76
2022/10/15 06:08:44;;;;;;;42.20;30.57;;;;;;;;;;4989584;28;20616;-76
2022/10/15 06:11:12;;;;;;;45.80;32.60;;;;;;;;;;4968909;28;20221;-75
2022/10/15 06:13:41;;;;;;;41.70;30.90;;;;;;;;;;4992831;28;20228;-74
2022/10/15 06:16:07;;;;;;;41.97;31.83;;;;;;;;;;5003183;28;20225;-75
2022/10/15 06:18:35;;;;;;;47.87;34.20;;;;;;;;;;5009132;28;20695;-76
2022/10/15 06:21:07;;;;;;;46.73;31.17;;;;;;;;;;4974605;28;20225;-76
2022/10/15 06:23:35;;;;;;;37.80;31.00;;;;;;;;;;5000276;28;20226;-76
2022/10/15 06:26:04;;;;;;;44.00;32.70;;;;;;;;;;5005177;28;20235;-76
2022/10/15 06:28:30;;;;;;;41.93;32.00;;;;;;;;;;4992916;28;20222;-75
2022/10/15 06:31:00;;;;;;;42.50;31.37;;;;;;;;;;4986924;28;20222;-76
2022/10/15 06:33:31;;;;;;;41.80;30.50;;;;;;;;;;4988160;28;20213;-77
2022/10/15 06:36:04;;;;;;;47.77;32.47;;;;;;;;;;4994112;28;20577;-75
2022/10/15 06:38:32;;;;;;;44.53;30.30;;;;;;;;;;4955046;28;20602;-76
2022/10/15 06:40:57;;;;;;;46.73;32.37;;;;;;;;;;4996540;28;20254;-76
2022/10/15 06:43:25;;;;;;;46.97;31.40;;;;;;;;;;5001177;28;20225;-76
2022/10/15 06:45:55;;;;;;;48.30;31.60;;;;;;;;;;5014421;28;20229;-75
2022/10/15 06:48:24;;;;;;;46.13;32.23;;;;;;;;;;4991704;28;20242;-75
2022/10/15 06:50:49;;;;;;;44.20;29.40;;;;;;;;;;4982757;28;20233;-76
2022/10/15 06:53:15;;;;;;;42.27;30.03;;;;;;;;;;4979841;28;20221;-76
2022/10/15 06:55:43;;;;;;;42.87;29.60;;;;;;;;;;4986247;28;20229;-77
2022/10/15 06:58:13;;;;;;;42.13;28.87;;;;;;;;;;4968291;28;20308;-76
2022/10/15 07:00:38;;;;;;;42.40;28.03;;;;;;;;;;4983657;28;20226;-77
2022/10/15 07:03:05;;;;;;;37.60;26.07;;;;;;;;;;4986755;28;20271;-76
2022/10/15 07:05:30;;;;;;;39.87;28.03;;;;;;;;;;4993972;28;20221;-76
2022/10/15 07:07:56;;;;;;;41.33;31.07;;;;;;;;;;4983473;28;20945;-76
2022/10/15 07:10:26;;;;;;;44.10;31.27;;;;;;;;;;4990064;28;20230;-75
2022/10/15 07:12:53;;;;;;;41.20;30.00;;;;;;;;;;4989852;28;20233;-76
2022/10/15 07:15:19;;;;;;;35.37;27.60;;;;;;;;;;4976545;28;20245;-75
2022/10/15 07:17:55;;;;;;;37.10;26.87;;;;;;;;;;4994061;28;20696;-77
2022/10/15 07:20:21;;;;;;;29.53;25.07;;;;;;;;;;4991003;28;20235;-74
2022/10/15 07:22:47;;;;;;;37.90;26.50;;;;;;;;;;4966601;28;20690;-76
2022/10/15 07:25:13;;;;;;;37.77;25.53;;;;;;;;;;4989270;28;20706;-75
2022/10/15 07:27:42;;;;;;;43.87;26.93;;;;;;;;;;4975208;28;20236;-75
2022/10/15 07:30:08;;;;;;;32.07;25.73;;;;;;;;;;5002844;28;20245;-75
2022/10/15 07:32:33;;;;;;;33.70;25.23;;;;;;;;;;4992093;28;20749;-76
2022/10/15 07:35:02;;;;;;;35.67;23.83;;;;;;;;;;4981589;28;20221;-75
2022/10/15 07:37:28;;;;;;;29.67;23.50;;;;;;;;;;4986847;28;20229;-75
2022/10/15 07:39:55;;;;;;;33.90;24.27;;;;;;;;;;4997681;28;20690;-76
2022/10/15 07:42:21;;;;;;;33.43;24.03;;;;;;;;;;4990939;28;20228;-76
2022/10/15 07:44:47;;;;;;;32.83;23.80;;;;;;;;;;4995904;28;20245;-76
2022/10/15 07:47:15;;;;;;;30.93;23.33;;;;;;;;;;5003977;28;20249;-75
2022/10/15 07:49:44;;;;;;;34.27;26.07;;;;;;;;;;4994750;28;20731;-75
2022/10/15 07:52:16;;;;;;;36.93;24.43;;;;;;;;;;4976366;28;20230;-75
2022/10/15 07:54:44;;;;;;;31.60;23.87;;;;;;;;;;4990039;28;20228;-76
2022/10/15 07:57:16;;;;;;;34.40;25.27;;;;;;;;;;4985135;28;20222;-74
2022/10/15 07:59:44;;;;;;;39.43;24.27;;;;;;;;;;5001118;28;20711;-76
2022/10/15 08:02:18;;;;;;;30.93;23.30;;;;;;;;;;5004464;28;20231;-75
2022/10/15 08:04:43;;;;;;;29.83;22.00;;;;;;;;;;5008233;28;20233;-75
2022/10/15 08:07:09;;;;;;;33.30;22.23;;;;;;;;;;4971924;28;20252;-77
2022/10/15 08:09:37;;;;;;;33.80;23.83;;;;;;;;;;4985035;28;20651;-79
2022/10/15 08:12:02;;;;;;;28.13;22.67;;;;;;;;;;4999968;28;20288;-76
2022/10/15 08:14:35;;;;;;;35.03;24.20;;;;;;;;;;4990797;28;20234;-76
2022/10/15 08:17:03;;;;;;;31.70;22.67;;;;;;;;;;4985011;28;20232;-77
2022/10/15 08:19:31;;;;;;;32.60;22.87;;;;;;;;;;4989224;28;20220;-75
2022/10/15 08:21:59;;;;;;;35.47;25.47;;;;;;;;;;4991432;28;20247;-78
2022/10/15 08:24:24;;;;;;;35.23;24.50;;;;;;;;;;4988272;28;20747;-74
2022/10/15 08:26:55;;;;;;;33.47;24.73;;;;;;;;;;4971066;28;20236;-73
2022/10/15 08:29:21;;;;;;;35.43;23.80;;;;;;;;;;4990363;28;20214;-76
2022/10/15 08:31:46;;;;;;;34.47;24.07;;;;;;;;;;5007814;28;20762;-77
2022/10/15 08:34:12;;;;;;;33.07;23.87;;;;;;;;;;5009596;28;20225;-76
2022/10/15 08:36:37;;;;;;;31.13;23.23;;;;;;;;;;4996072;28;20235;-77
2022/10/15 08:39:06;;;;;;;28.30;21.33;;;;;;;;;;4981632;28;20234;-75
2022/10/15 08:41:34;;;;;;;25.13;20.47;;;;;;;;;;4988541;28;20598;-76
2022/10/15 08:44:02;;;;;;;27.10;21.00;;;;;;;;;;4991138;28;20909;-77
2022/10/15 08:46:37;;;;;;;25.47;20.57;;;;;;;;;;4989585;28;20309;-75
2022/10/15 08:49:03;;;;;;;21.73;19.27;;;;;;;;;;4998261;28;20233;-76
2022/10/15 08:51:45;;;;;;;20.95;18.48;;;;;;;;;;4999267;28;20233;-76
2022/10/15 08:54:15;;;;;;;19.67;17.57;;;;;;;;;;4970993;28;20305;-76
2022/10/15 08:56:48;;;;;;;19.20;17.10;;;;;;;;;;4975522;28;20236;-76
2022/10/15 08:59:16;;;;;;;20.25;18.15;;;;;;;;;;4991888;28;20708;-75
2022/10/15 09:01:42;;;;;;;19.48;17.40;;;;;;;;;;4993688;28;20309;-75
2022/10/15 09:04:25;;;;;;;19.85;17.65;;;;;;;;;;4990193;28;20307;-77
2022/10/15 09:07:05;;;;;;;18.90;16.88;;;;;;;;;;5003418;28;20232;-75
2022/10/15 09:09:40;;;;;;;21.85;18.02;;;;;;;;;;4974360;28;20255;-77
2022/10/15 09:12:45;;;;;;;22.23;18.23;;;;;;;;;;4987406;28;20232;-76
2022/10/15 09:15:16;;;;;;;18.30;16.38;;;;;;;;;;4994433;28;20295;-76
2022/10/15 09:17:42;;;;;;;17.27;15.48;;;;;;;;;;4973050;28;20253;-76
2022/10/15 09:20:19;;;;;;;17.02;15.43;;;;;;;;;;4989654;28;20229;-76
2022/10/15 09:22:52;;;;;;;15.95;14.20;;;;;;;;;;4991163;28;20212;-76
2022/10/15 09:25:24;;;;;;;16.00;14.50;;;;;;;;;;4967429;28;20228;-77
2022/10/15 09:27:50;;;;;;;14.30;12.90;;;;;;;;;;4994664;28;20311;-77
2022/10/15 09:30:33;;;;;;;15.47;13.13;;;;;;;;;;4972125;28;20224;-77
2022/10/15 09:33:22;;;;;;;13.50;12.20;;;;;;;;;;4992571;28;20318;-78
2022/10/15 09:36:01;;;;;;;17.08;12.90;;;;;;;;;;4977663;28;20680;-78
2022/10/15 09:38:38;;;;;;;14.13;12.73;;;;;;;;;;4994229;28;20225;-77
2022/10/15 09:41:28;;;;;;;14.40;11.85;;;;;;;;;;4992055;28;20228;-78
2022/10/15 09:43:57;;;;;;;13.25;11.95;;;;;;;;;;4991268;28;20229;-77
2022/10/15 09:46:28;;;;;;;14.60;11.57;;;;;;;;;;4968788;28;20248;-77
2022/10/15 09:49:19;;;;;;;17.88;11.85;;;;;;;;;;4991899;28;21131;-77
2022/10/15 09:52:00;;;;;;;11.40;10.30;;;;;;;;;;4983556;28;20221;-78
2022/10/15 09:54:36;;;;;;;12.15;11.05;;;;;;;;;;4996823;28;20220;-77
2022/10/15 09:57:04;;;;;;;12.25;10.95;;;;;;;;;;4965444;28;20233;-76
2022/10/15 09:59:31;;;;;;;11.73;10.63;;;;;;;;;;4981510;28;20229;-76
2022/10/15 10:02:20;;;;;;;14.20;11.02;;;;;;;;;;4988798;28;20218;-78
2022/10/15 10:04:50;;;;;;;13.93;10.23;;;;;;;;;;4989610;28;20598;-78
2022/10/15 10:07:32;;;;;;;13.05;11.00;;;;;;;;;;4986994;28;20222;-77
2022/10/15 10:10:36;;;;;;;11.05;10.00;;;;;;;;;;4991166;28;20254;-75
2022/10/15 10:13:04;;;;;;;11.32;10.13;;;;;;;;;;4959002;28;20239;-78
2022/10/15 10:15:40;;;;;;;10.85;9.95;;;;;;;;;;5006626;28;20229;-76
2022/10/15 10:18:18;;;;;;;10.52;9.52;;;;;;;;;;5009170;28;20307;-76
2022/10/15 10:21:00;;;;;;;11.00;9.43;;;;;;;;;;4996746;28;20718;-77
2022/10/15 10:23:36;;;;;;;9.85;8.52;;;;;;;;;;4990587;28;20754;-76
2022/10/15 10:26:03;;;;;;;8.75;7.85;;;;;;;;;;4994751;28;20715;-76
2022/10/15 10:28:34;;;;;;;10.73;7.28;;;;;;;;;;4980954;28;20228;-75
2022/10/15 10:31:03;;;;;;;8.07;7.30;;;;;;;;;;4978984;28;20672;-75
2022/10/15 10:33:43;;;;;;;7.38;6.68;;;;;;;;;;4990796;28;20264;-75
2022/10/15 10:36:23;;;;;;;8.18;7.35;;;;;;;;;;4992729;28;20221;-77
2022/10/15 10:39:02;;;;;;;9.23;8.43;;;;;;;;;;5003772;28;20234;-78
2022/10/15 10:41:50;;;;;;;10.88;7.95;;;;;;;;;;4994072;28;20225;-77
2022/10/15 10:44:30;;;;;;;8.80;7.90;;;;;;;;;;4996341;28;20218;-77
2022/10/15 10:47:13;;;;;;;8.07;7.13;;;;;;;;;;5007103;28;20221;-77
2022/10/15 10:49:39;;;;;;;8.57;7.00;;;;;;;;;;4996946;28;20237;-78
2022/10/15 10:52:31;;;;;;;8.45;7.72;;;;;;;;;;4997444;28;20586;-78
2022/10/15 10:55:06;;;;;;;9.25;7.63;;;;;;;;;;4988053;28;20240;-76
2022/10/15 10:57:48;;;;;;;7.88;7.07;;;;;;;;;;5008965;28;20311;-78
2022/10/15 11:00:20;;;;;;;8.18;6.88;;;;;;;;;;4976057;28;20743;-79
2022/10/15 11:02:50;;;;;;;7.25;6.38;;;;;;;;;;4991698;28;20221;-78
2022/10/15 11:05:24;;;;;;;6.97;6.38;;;;;;;;;;4994164;28;20217;-78
2022/10/15 11:08:07;;;;;;;8.07;7.43;;;;;;;;;;4985395;28;20225;-78
2022/10/15 11:10:58;;;;;;;10.63;7.47;;;;;;;;;;4998240;28;20225;-77
2022/10/15 11:13:32;;;;;;;9.43;8.52;;;;;;;;;;4995884;28;20315;-79
2022/10/15 11:16:00;;;;;;;9.10;8.30;;;;;;;;;;5003254;28;20233;-76
2022/10/15 11:18:46;;;;;;;9.80;8.85;;;;;;;;;;5000819;28;20300;-78
2022/10/15 11:21:36;;;;;;;10.02;9.23;;;;;;;;;;5005981;28;20261;-79
2022/10/15 11:24:33;;;;;;;11.18;10.05;;;;;;;;;;4992364;28;20221;-79
2022/10/15 11:27:31;;;;;;;10.90;10.00;;;;;;;;;;4946164;28;20248;-78
2022/10/15 11:30:21;;;;;;;11.23;10.13;;;;;;;;;;4986396;28;20322;-77
2022/10/15 11:33:19;;;;;;;13.18;12.07;;;;;;;;;;5003011;28;20221;-78
2022/10/15 11:36:07;;;;;;;12.88;11.68;;;;;;;;;;4995290;28;20229;-78
2022/10/15 11:38:53;;;;;;;13.85;12.73;;;;;;;;;;4992144;28;20221;-79
2022/10/15 11:41:39;;;;;;;12.65;11.50;;;;;;;;;;4995825;28;20530;-78
2022/10/15 11:44:15;;;;;;;14.10;12.63;;;;;;;;;;4996552;28;20248;-80
2022/10/15 11:46:46;;;;;;;15.65;14.25;;;;;;;;;;4998022;28;20230;-78
2022/10/15 11:49:46;;;;;;;15.40;14.02;;;;;;;;;;4998329;28;20252;-77
2022/10/15 11:52:36;;;;;;;15.00;13.70;;;;;;;;;;4981382;28;20241;-77
2022/10/15 11:55:18;;;;;;;15.35;14.00;;;;;;;;;;4988054;28;20217;-78
2022/10/15 11:57:48;;;;;;;15.70;14.10;;;;;;;;;;4990935;28;20241;-78
2022/10/15 12:00:28;;;;;;;15.40;13.98;;;;;;;;;;4975509;28;20229;-78
2022/10/15 12:02:58;;;;;;;16.73;15.10;;;;;;;;;;4983317;28;20259;-79
2022/10/15 12:05:49;;;;;;;14.73;13.43;;;;;;;;;;4998507;28;20246;-78
2022/10/15 12:08:15;;;;;;;15.00;13.75;;;;;;;;;;4999664;28;20216;-79
2022/10/15 12:11:18;;;;;;;17.27;15.48;;;;;;;;;;4975291;28;20220;-77
2022/10/15 12:13:53;;;;;;;16.10;14.57;;;;;;;;;;4983078;28;20304;-78
2022/10/15 12:16:42;;;;;;;15.32;13.82;;;;;;;;;;4993230;28;20233;-77
2022/10/15 12:19:20;;;;;;;14.82;13.40;;;;;;;;;;4983871;28;20248;-77
2022/10/15 12:21:55;;;;;;;14.60;13.23;;;;;;;;;;5008289;28;20225;-78
2022/10/15 12:24:37;;;;;;;13.50;12.40;;;;;;;;;;4998241;28;20225;-77
2022/10/15 12:27:17;;;;;;;12.93;11.68;;;;;;;;;;5008594;28;20613;-78
2022/10/15 12:30:05;;;;;;;12.85;11.70;;;;;;;;;;4986238;28;20248;-78
2022/10/15 12:32:42;;;;;;;12.77;11.60;;;;;;;;;;4998781;28;20229;-79
2022/10/15 12:35:13;;;;;;;11.93;10.88;;;;;;;;;;4997600;28;20220;-77
2022/10/15 12:37:45;;;;;;;12.20;11.13;;;;;;;;;;4998798;28;20229;-78
2022/10/15 12:40:19;;;;;;;11.45;10.45;;;;;;;;;;4994510;28;20266;-78
2022/10/15 12:43:00;;;;;;;10.43;9.43;;;;;;;;;;4996140;28;20311;-78
2022/10/15 12:45:29;;;;;;;11.00;9.77;;;;;;;;;;4994258;28;20239;-77
2022/10/15 12:48:14;;;;;;;10.45;9.45;;;;;;;;;;4993641;28;20241;-77
2022/10/15 12:50:44;;;;;;;9.65;8.85;;;;;;;;;;4973520;28;20220;-78
2022/10/15 12:53:31;;;;;;;8.57;7.97;;;;;;;;;;4990762;28;20212;-78
2022/10/15 12:56:08;;;;;;;9.27;8.52;;;;;;;;;;5001865;28;20229;-78
2022/10/15 12:58:41;;;;;;;8.38;7.75;;;;;;;;;;4987690;28;20236;-78
2022/10/15 13:01:15;;;;;;;9.80;9.00;;;;;;;;;;4978270;28;20749;-76
2022/10/15 13:03:42;;;;;;;7.88;7.25;;;;;;;;;;5013051;28;20324;-78
2022/10/15 13:06:20;;;;;;;8.27;7.57;;;;;;;;;;4976546;28;21327;-76
2022/10/15 13:08:50;;;;;;;7.53;7.00;;;;;;;;;;4997643;28;20233;-77
2022/10/15 13:11:29;;;;;;;7.95;7.15;;;;;;;;;;4997280;28;20233;-77
2022/10/15 13:14:31;;;;;;;7.55;6.95;;;;;;;;;;4967357;28;20714;-77
2022/10/15 13:17:00;;;;;;;7.00;6.50;;;;;;;;;;4974945;28;20243;-78
2022/10/15 13:19:33;;;;;;;7.43;6.82;;;;;;;;;;4959852;28;20230;-78
2022/10/15 13:22:00;;;;;;;8.27;7.47;;;;;;;;;;4998517;28;20227;-77
2022/10/15 13:24:42;;;;;;;14.00;7.15;;;;;;;;;;5004848;28;20590;-78
2022/10/15 13:27:25;;;;;;;8.13;7.43;;;;;;;;;;4979591;28;20231;-77
2022/10/15 13:29:55;;;;;;;7.38;6.68;;;;;;;;;;4979194;28;20672;-78
2022/10/15 13:32:23;;;;;;;7.03;6.53;;;;;;;;;;4978947;28;20229;-76
2022/10/15 13:34:49;;;;;;;7.05;5.90;;;;;;;;;;4988692;28;20249;-77
2022/10/15 13:37:17;;;;;;;5.93;5.43;;;;;;;;;;4976976;28;20340;-78
2022/10/15 13:39:45;;;;;;;6.13;5.72;;;;;;;;;;4994771;28;20486;-77
2022/10/15 13:42:23;;;;;;;5.40;5.00;;;;;;;;;;4981155;28;20348;-77
2022/10/15 13:45:12;;;;;;;5.53;5.13;;;;;;;;;;4988957;28;20240;-76
2022/10/15 13:47:40;;;;;;;5.60;5.20;;;;;;;;;;4984547;28;20283;-77
2022/10/15 13:50:29;;;;;;;5.45;5.05;;;;;;;;;;4986536;28;20226;-76
2022/10/15 13:53:13;;;;;;;5.15;4.57;;;;;;;;;;4980352;28;20599;-76
2022/10/15 13:55:46;;;;;;;4.70;4.40;;;;;;;;;;4969243;28;20346;-76
2022/10/15 13:58:13;;;;;;;4.85;4.35;;;;;;;;;;4996007;28;20233;-76
2022/10/15 14:00:43;;;;;;;4.93;4.57;;;;;;;;;;5008003;28;20221;-76
2022/10/15 14:03:16;;;;;;;4.75;4.35;;;;;;;;;;4984430;28;20221;-79
2022/10/15 14:05:47;;;;;;;4.57;4.18;;;;;;;;;;4985248;28;20659;-76
2022/10/15 14:08:17;;;;;;;4.20;3.90;;;;;;;;;;4987835;28;20364;-78
2022/10/15 14:10:43;;;;;;;4.57;4.05;;;;;;;;;;4970827;28;20240;-77
2022/10/15 14:13:11;;;;;;;4.50;4.20;;;;;;;;;;4966165;28;20221;-77
2022/10/15 14:15:47;;;;;;;4.55;4.15;;;;;;;;;;4996925;28;20291;-77
2022/10/15 14:18:16;;;;;;;6.43;3.67;;;;;;;;;;4989213;28;20224;-77
2022/10/15 14:20:47;;;;;;;3.80;3.50;;;;;;;;;;4974251;28;20578;-75
2022/10/15 14:23:23;;;;;;;4.10;3.80;;;;;;;;;;4972035;28;20216;-77
2022/10/15 14:25:58;;;;;;;3.80;3.50;;;;;;;;;;4964316;28;20262;-76
2022/10/15 14:28:26;;;;;;;5.82;4.22;;;;;;;;;;4991438;28;20248;-75
2022/10/15 14:30:54;;;;;;;3.97;3.78;;;;;;;;;;4964131;28;20285;-77
2022/10/15 14:33:39;;;;;;;4.15;3.58;;;;;;;;;;4981135;28;20233;-77
2022/10/15 14:36:28;;;;;;;3.97;3.67;;;;;;;;;;4995489;28;20633;-76
2022/10/15 14:38:54;;;;;;;4.07;3.67;;;;;;;;;;4987519;28;20241;-77
2022/10/15 14:41:22;;;;;;;4.10;3.80;;;;;;;;;;4981043;28;20709;-77
2022/10/15 14:44:18;;;;;;;3.50;3.30;;;;;;;;;;4988281;28;20315;-77
2022/10/15 14:46:48;;;;;;;3.80;3.50;;;;;;;;;;5003010;28;20244;-78
2022/10/15 14:49:24;;;;;;;3.33;3.03;;;;;;;;;;4994685;28;20233;-78
2022/10/15 14:51:54;;;;;;;3.50;3.30;;;;;;;;;;4989161;28;20679;-79
2022/10/15 14:54:28;;;;;;;3.47;3.22;;;;;;;;;;4985389;28;20214;-77
2022/10/15 14:56:56;;;;;;;3.60;3.40;;;;;;;;;;4970182;28;20320;-77